Colfax, Wisconsin
Current Conditions -  °F | °C
As of 3:35 PM on Saturday 25 Oct 2014 (Local Time) from KLUM Reporting Station
Clear Clear  
Wind Chill: 63°   Ceiling: Unl
Heat Index: 63°   Visibility: 10mi
Dew Point: 26°   Wind: 20mph
Humidity: 24%   Direction: 270°W
Pressure: 29.99"   Gusts: 26mph
Location:  45°N, 91.73°W
Report Text: KLUM 252035Z AUTO 27017G23KT 10SM CLR 17/M03 A2999 RMK AO2 T01721034
Loading
Personal Weather Stations






























Interactive Weather Map
Tropical Storm Tracking
New forecast layout! Learn more

10-Day Weather Forecast

Advertisements
Track Severe Weather on mobile